Time,TemperatureF,DewpointF,PressureIn,WindDirection,WindDirectionDegrees,WindSpeedMPH,WindSpeedGustMPH,Humidity,HourlyPrecipIn,Conditions,Clouds,dailyrainin,SoftwareType,DateUTC
2013-01-21 00:04:00,12.0,2.0,-100.00,NNW,330,5.0,11.0,64,0.00,,,-99.99,,2013-01-21 05:04:00,
2013-01-21 00:12:00,11.0,2.0,-100.00,NW,310,6.0,13.0,64,0.00,,,-99.99,,2013-01-21 05:12:00,
2013-01-21 00:22:00,11.0,2.0,-100.00,WNW,300,4.0,8.0,65,0.00,,,-99.99,,2013-01-21 05:22:00,
2013-01-21 00:34:00,11.0,1.0,-100.00,NW,310,2.0,7.0,65,0.00,,,-99.99,,2013-01-21 05:34:00,
2013-01-21 00:42:00,10.0,1.0,-100.00,NNW,335,1.0,6.0,66,0.00,,,-99.99,,2013-01-21 05:42:00,
2013-01-21 00:52:00,10.0,1.0,-100.00,NW,315,4.0,9.0,65,0.00,,,-99.99,,2013-01-21 05:52:00,
2013-01-21 01:03:00,10.0,0.0,-100.00,NW,320,4.0,9.0,64,0.00,,,-99.99,,2013-01-21 06:03:00,
2013-01-21 01:13:00,9.0,0.0,-100.00,NW,325,3.0,7.0,65,0.00,,,-99.99,,2013-01-21 06:13:00,
2013-01-21 01:23:00,9.0,0.0,-100.00,WSW,240,2.0,7.0,65,0.00,,,-99.99,,2013-01-21 06:23:00,
2013-01-21 01:33:00,9.0,0.0,-100.00,SW,235,3.0,8.0,65,0.00,,,-99.99,,2013-01-21 06:33:00,
2013-01-21 01:43:00,9.0,0.0,-100.00,NW,310,1.0,4.0,65,0.00,,,-99.99,,2013-01-21 06:43:00,
2013-01-21 01:52:00,8.0,-1.0,-100.00,WNW,300,1.0,3.0,66,0.00,,,-99.99,,2013-01-21 06:52:00,
2013-01-21 02:03:00,8.0,-1.0,-100.00,NNW,345,1.0,4.0,65,0.00,,,-99.99,,2013-01-21 07:03:00,
2013-01-21 02:13:00,8.0,-1.0,-100.00,NNW,330,1.0,4.0,67,0.00,,,-99.99,,2013-01-21 07:13:00,
2013-01-21 02:22:00,7.0,-1.0,-100.00,SW,215,1.0,1.0,70,0.00,,,-99.99,,2013-01-21 07:22:00,
2013-01-21 02:33:00,6.0,-1.0,-100.00,SW,235,1.0,2.0,71,0.00,,,-99.99,,2013-01-21 07:33:00,
2013-01-21 02:42:00,6.0,-1.0,-100.00,NNW,335,2.0,5.0,70,0.00,,,-99.99,,2013-01-21 07:42:00,
2013-01-21 02:52:00,7.0,-1.0,-100.00,NW,305,4.0,7.0,68,0.00,,,-99.99,,2013-01-21 07:52:00,
2013-01-21 03:03:00,6.0,-2.0,-100.00,NW,310,2.0,6.0,68,0.00,,,-99.99,,2013-01-21 08:03:00,
2013-01-21 03:14:00,5.0,-2.0,-100.00,West,275,1.0,6.0,71,0.00,,,-99.99,,2013-01-21 08:14:00,
2013-01-21 03:23:00,4.0,-2.0,-100.00,WSW,255,1.0,6.0,73,0.00,,,-99.99,,2013-01-21 08:23:00,
2013-01-21 03:33:00,4.0,-3.0,-100.00,West,270,1.0,4.0,74,0.00,,,-99.99,,2013-01-21 08:33:00,
2013-01-21 03:42:00,3.0,-3.0,-100.00,SSW,205,1.0,2.0,76,0.00,,,-99.99,,2013-01-21 08:42:00,
2013-01-21 03:53:00,2.0,-3.0,-100.00,SSW,200,0.0,2.0,78,0.00,,,-99.99,,2013-01-21 08:53:00,
2013-01-21 04:03:00,2.0,-3.0,-100.00,SW,220,2.0,2.0,79,0.00,,,-99.99,,2013-01-21 09:03:00,
2013-01-21 04:12:00,2.0,-3.0,-100.00,SSW,205,2.0,3.0,77,0.00,,,-99.99,,2013-01-21 09:12:00,
2013-01-21 04:23:00,1.0,-4.0,-100.00,SW,235,1.0,1.0,78,0.00,,,-99.99,,2013-01-21 09:23:00,
2013-01-21 04:33:00,1.0,-4.0,-100.00,SW,230,1.0,1.0,80,0.00,,,-99.99,,2013-01-21 09:33:00,
2013-01-21 04:42:00,0.0,-4.0,-100.00,SW,220,1.0,1.0,80,0.00,,,-99.99,,2013-01-21 09:42:00,
2013-01-21 04:52:00,0.0,-4.0,-100.00,West,270,1.0,2.0,80,0.00,,,-99.99,,2013-01-21 09:52:00,
2013-01-21 05:02:00,0.0,-5.0,-100.00,SSW,210,0.0,2.0,81,0.00,,,-99.99,,2013-01-21 10:02:00,
2013-01-21 05:12:00,-1.0,-5.0,-100.00,South,180,1.0,2.0,81,0.00,,,-99.99,,2013-01-21 10:12:00,
2013-01-21 05:22:00,-1.0,-6.0,-100.00,WSW,250,0.0,2.0,80,0.00,,,-99.99,,2013-01-21 10:22:00,
2013-01-21 05:33:00,-1.0,-6.0,-100.00,ESE,105,2.0,2.0,81,0.00,,,-99.99,,2013-01-21 10:33:00,
2013-01-21 05:43:00,-2.0,-6.0,-100.00,SW,225,1.0,2.0,82,0.00,,,-99.99,,2013-01-21 10:43:00,
2013-01-21 05:52:00,-2.0,-6.0,-100.00,WSW,240,1.0,2.0,82,0.00,,,-99.99,,2013-01-21 10:52:00,
2013-01-21 06:03:00,-2.0,-7.0,-100.00,SW,225,1.0,1.0,81,0.00,,,-99.99,,2013-01-21 11:03:00,
2013-01-21 06:13:00,-3.0,-7.0,-100.00,SW,235,1.0,1.0,81,0.00,,,-99.99,,2013-01-21 11:13:00,
2013-01-21 06:23:00,-3.0,-7.0,-100.00,SW,235,1.0,1.0,81,0.00,,,-99.99,,2013-01-21 11:23:00,
2013-01-21 06:33:00,-3.0,-8.0,-100.00,NE,45,0.0,1.0,80,0.00,,,-99.99,,2013-01-21 11:33:00,
2013-01-21 06:43:00,-3.0,-8.0,-100.00,NW,310,0.0,1.0,80,0.00,,,-99.99,,2013-01-21 11:43:00,
2013-01-21 06:53:00,-4.0,-8.0,-100.00,SW,225,1.0,1.0,80,0.00,,,-99.99,,2013-01-21 11:53:00,
2013-01-21 07:02:00,-4.0,-9.0,-100.00,SW,235,1.0,1.0,80,0.00,,,-99.99,,2013-01-21 12:02:00,
2013-01-21 07:12:00,-5.0,-10.0,-100.00,NNW,330,1.0,2.0,79,0.00,,,-99.99,,2013-01-21 12:12:00,
2013-01-21 07:22:00,-6.0,-10.0,-100.00,North,5,0.0,1.0,79,0.00,,,-99.99,,2013-01-21 12:22:00,
2013-01-21 07:33:00,-6.0,-10.0,-100.00,NE,35,0.0,1.0,79,0.00,,,-99.99,,2013-01-21 12:33:00,
2013-01-21 07:42:00,-6.0,-11.0,-100.00,WSW,240,1.0,1.0,79,0.00,,,-99.99,,2013-01-21 12:42:00,
2013-01-21 07:52:00,-6.0,-11.0,-100.00,WSW,240,1.0,1.0,79,0.00,,,-99.99,,2013-01-21 12:52:00,
2013-01-21 08:03:00,-6.0,-11.0,-100.00,WSW,240,1.0,1.0,79,0.00,,,-99.99,,2013-01-21 13:03:00,
2013-01-21 08:13:00,-6.0,-11.0,-100.00,WSW,240,1.0,1.0,79,0.00,,,-99.99,,2013-01-21 13:13:00,
2013-01-21 08:23:00,-3.0,-9.0,-100.00,SE,125,1.0,1.0,76,0.00,,,-99.99,,2013-01-21 13:23:00,
2013-01-21 08:33:00,-2.0,-8.0,-100.00,North,0,0.0,1.0,75,0.00,,,-99.99,,2013-01-21 13:33:00,
2013-01-21 08:43:00,-1.0,-8.0,-100.00,NW,315,0.0,1.0,73,0.00,,,-99.99,,2013-01-21 13:43:00,
2013-01-21 08:54:00,0.0,-6.0,-100.00,NNW,330,1.0,1.0,72,0.00,,,-99.99,,2013-01-21 13:54:00,
2013-01-21 09:03:00,0.0,-8.0,-100.00,NE,55,0.0,1.0,68,0.00,,,-99.99,,2013-01-21 14:03:00,
2013-01-21 09:12:00,0.0,-7.0,-100.00,NNE,15,1.0,1.0,71,0.00,,,-99.99,,2013-01-21 14:12:00,
2013-01-21 09:23:00,0.0,-7.0,-100.00,East,100,1.0,1.0,71,0.00,,,-99.99,,2013-01-21 14:23:00,
2013-01-21 09:33:00,0.0,-7.0,-100.00,East,85,1.0,2.0,72,0.00,,,-99.99,,2013-01-21 14:33:00,
2013-01-21 09:43:00,0.0,-8.0,-100.00,ENE,70,1.0,1.0,67,0.00,,,-99.99,,2013-01-21 14:43:00,
2013-01-21 09:53:00,0.0,-7.0,-100.00,NNW,345,1.0,1.0,70,0.00,,,-99.99,,2013-01-21 14:53:00,
2013-01-21 10:03:00,3.0,-4.0,-100.00,East,100,1.0,1.0,71,0.00,,,-99.99,,2013-01-21 15:03:00,
2013-01-21 10:13:00,5.0,-4.0,-100.00,SE,135,0.0,2.0,64,0.00,,,-99.99,,2013-01-21 15:13:00,
2013-01-21 10:23:00,5.0,-4.0,-100.00,NNE,15,1.0,1.0,65,0.00,,,-99.99,,2013-01-21 15:23:00,
2013-01-21 10:33:00,6.0,-5.0,-100.00,ESE,120,1.0,2.0,59,0.00,,,-99.99,,2013-01-21 15:33:00,
2013-01-21 10:43:00,7.0,-5.0,-100.00,NE,35,1.0,2.0,59,0.00,,,-99.99,,2013-01-21 15:43:00,
2013-01-21 10:53:00,7.0,-5.0,-100.00,North,5,1.0,2.0,57,0.00,,,-99.99,,2013-01-21 15:53:00,
2013-01-21 11:04:00,8.0,-5.0,-100.00,NNW,330,1.0,3.0,56,0.00,,,-99.99,,2013-01-21 16:04:00,
2013-01-21 11:12:00,8.0,-4.0,-100.00,North,0,2.0,3.0,56,0.00,,,-99.99,,2013-01-21 16:12:00,
2013-01-21 11:23:00,10.0,-3.0,-100.00,East,100,1.0,3.0,54,0.00,,,-99.99,,2013-01-21 16:23:00,
2013-01-21 11:33:00,11.0,-3.0,-100.00,SSW,205,3.0,9.0,52,0.00,,,-99.99,,2013-01-21 16:33:00,
2013-01-21 11:43:00,13.0,-2.0,-100.00,SW,235,2.0,7.0,49,0.00,,,-99.99,,2013-01-21 16:43:00,
2013-01-21 11:53:00,14.0,-3.0,-100.00,SW,230,3.0,8.0,45,0.00,,,-99.99,,2013-01-21 16:53:00,
2013-01-21 12:03:00,15.0,-3.0,-100.00,SSW,200,2.0,7.0,44,0.00,,,-99.99,,2013-01-21 17:03:00,
2013-01-21 12:12:00,15.0,-3.0,-100.00,SW,235,2.0,7.0,42,0.00,,,-99.99,,2013-01-21 17:12:00,
2013-01-21 12:23:00,15.0,-4.0,-100.00,WSW,250,3.0,9.0,43,0.00,,,-99.99,,2013-01-21 17:23:00,
2013-01-21 12:33:00,15.0,-3.0,-100.00,NNE,15,1.0,8.0,43,0.00,,,-99.99,,2013-01-21 17:33:00,
2013-01-21 12:43:00,15.0,-3.0,-100.00,North,0,2.0,6.0,43,0.00,,,-99.99,,2013-01-21 17:43:00,
2013-01-21 12:53:00,15.0,-4.0,-100.00,North,350,4.0,9.0,40,0.00,,,-99.99,,2013-01-21 17:53:00,
2013-01-21 13:03:00,16.0,-5.0,-100.00,WNW,300,4.0,9.0,38,0.00,,,-99.99,,2013-01-21 18:03:00,
2013-01-21 13:12:00,16.0,-4.0,-100.00,West,265,3.0,8.0,38,0.00,,,-99.99,,2013-01-21 18:12:00,
2013-01-21 13:22:00,17.0,-4.0,-100.00,NW,310,4.0,9.0,38,0.00,,,-99.99,,2013-01-21 18:22:00,
2013-01-21 13:33:00,16.0,-4.0,-100.00,NNW,340,6.0,10.0,40,0.00,,,-99.99,,2013-01-21 18:33:00,
2013-01-21 13:42:00,15.0,-4.0,-100.00,NNW,345,5.0,9.0,40,0.00,,,-99.99,,2013-01-21 18:42:00,
2013-01-21 13:52:00,16.0,-4.0,-100.00,NNW,340,6.0,10.0,39,0.00,,,-99.99,,2013-01-21 18:52:00,
2013-01-21 14:03:00,16.0,-5.0,-100.00,North,355,2.0,7.0,38,0.00,,,-99.99,,2013-01-21 19:03:00,
2013-01-21 14:12:00,17.0,-3.0,-100.00,NNW,345,5.0,8.0,40,0.00,,,-99.99,,2013-01-21 19:12:00,
2013-01-21 14:22:00,18.0,-3.0,-100.00,West,265,2.0,4.0,37,0.00,,,-99.99,,2013-01-21 19:22:00,
2013-01-21 14:33:00,17.0,-5.0,-100.00,NW,325,6.0,11.0,36,0.00,,,-99.99,,2013-01-21 19:33:00,
2013-01-21 14:43:00,17.0,-4.0,-100.00,WNW,295,4.0,11.0,37,0.00,,,-99.99,,2013-01-21 19:43:00,
2013-01-21 14:53:00,17.0,-5.0,-100.00,NNW,330,4.0,10.0,36,0.00,,,-99.99,,2013-01-21 19:53:00,
2013-01-21 15:03:00,17.0,-4.0,-100.00,WNW,300,2.0,9.0,37,0.00,,,-99.99,,2013-01-21 20:03:00,
2013-01-21 15:12:00,17.0,-4.0,-100.00,NW,305,3.0,9.0,37,0.00,,,-99.99,,2013-01-21 20:12:00,
2013-01-21 15:23:00,17.0,-3.0,-100.00,NW,305,1.0,7.0,39,0.00,,,-99.99,,2013-01-21 20:23:00,
2013-01-21 15:33:00,17.0,-4.0,-100.00,NNW,335,1.0,6.0,38,0.00,,,-99.99,,2013-01-21 20:33:00,
2013-01-21 15:43:00,17.0,-4.0,-100.00,WNW,300,1.0,5.0,38,0.00,,,-99.99,,2013-01-21 20:43:00,
2013-01-21 15:53:00,17.0,-4.0,-100.00,WNW,290,1.0,6.0,39,0.00,,,-99.99,,2013-01-21 20:53:00,
2013-01-21 16:04:00,17.0,-3.0,-100.00,NNW,345,4.0,6.0,41,0.00,,,-99.99,,2013-01-21 21:04:00,
2013-01-21 16:12:00,17.0,-3.0,-100.00,NNW,335,2.0,7.0,41,0.00,,,-99.99,,2013-01-21 21:12:00,
2013-01-21 16:23:00,16.0,-2.0,-100.00,NW,315,3.0,6.0,43,0.00,,,-99.99,,2013-01-21 21:23:00,
2013-01-21 16:33:00,16.0,-2.0,-100.00,North,0,2.0,4.0,42,0.00,,,-99.99,,2013-01-21 21:33:00,
2013-01-21 16:43:00,16.0,-1.0,-100.00,NNW,345,3.0,6.0,44,0.00,,,-99.99,,2013-01-21 21:43:00,
2013-01-21 16:53:00,16.0,-2.0,-100.00,NNW,330,1.0,6.0,44,0.00,,,-99.99,,2013-01-21 21:53:00,
2013-01-21 17:03:00,16.0,-2.0,-100.00,WNW,295,1.0,2.0,44,0.00,,,-99.99,,2013-01-21 22:03:00,
2013-01-21 17:12:00,16.0,-1.0,-100.00,NNW,330,2.0,4.0,46,0.00,,,-99.99,,2013-01-21 22:12:00,
2013-01-21 17:23:00,16.0,-1.0,-100.00,South,170,2.0,4.0,47,0.00,,,-99.99,,2013-01-21 22:23:00,
2013-01-21 17:33:00,16.0,0.0,-100.00,ENE,60,1.0,2.0,47,0.00,,,-99.99,,2013-01-21 22:33:00,
2013-01-21 17:43:00,16.0,0.0,-100.00,SSE,150,1.0,4.0,50,0.00,,,-99.99,,2013-01-21 22:43:00,
2013-01-21 17:52:00,16.0,2.0,-100.00,ESE,105,1.0,4.0,52,0.00,,,-99.99,,2013-01-21 22:52:00,
2013-01-21 18:03:00,16.0,1.0,-100.00,North,5,1.0,2.0,51,0.00,,,-99.99,,2013-01-21 23:03:00,
2013-01-21 18:13:00,16.0,1.0,-100.00,SE,130,1.0,2.0,51,0.00,,,-99.99,,2013-01-21 23:13:00,
2013-01-21 18:23:00,16.0,2.0,-100.00,North,5,0.0,2.0,53,0.00,,,-99.99,,2013-01-21 23:23:00,
2013-01-21 18:33:00,15.0,4.0,-100.00,ESE,120,1.0,2.0,60,0.00,,,-99.99,,2013-01-21 23:33:00,
2013-01-21 18:42:00,15.0,4.0,-100.00,North,350,2.0,4.0,61,0.00,,,-99.99,,2013-01-21 23:42:00,
2013-01-21 18:53:00,15.0,4.0,-100.00,NNW,335,2.0,4.0,63,0.00,,,-99.99,,2013-01-21 23:53:00,
2013-01-21 19:03:00,14.0,5.0,-100.00,North,5,1.0,4.0,66,0.00,,,-99.99,,2013-01-22 00:03:00,
2013-01-21 19:12:00,14.0,6.0,-100.00,North,5,1.0,3.0,69,0.00,,,-99.99,,2013-01-22 00:12:00,
2013-01-21 19:22:00,14.0,7.0,-100.00,NE,55,1.0,4.0,72,0.00,,,-99.99,,2013-01-22 00:22:00,
2013-01-21 19:33:00,14.0,7.0,-100.00,NNW,345,1.0,2.0,74,0.00,,,-99.99,,2013-01-22 00:33:00,
2013-01-21 19:43:00,14.0,7.0,-100.00,NNE,25,0.0,2.0,75,0.01,,,-99.99,,2013-01-22 00:43:00,
2013-01-21 19:53:00,14.0,8.0,-100.00,East,85,0.0,1.0,78,0.00,,,-99.99,,2013-01-22 00:53:00,
2013-01-21 20:02:00,13.0,8.0,-100.00,ENE,70,0.0,2.0,79,0.00,,,-99.99,,2013-01-22 01:02:00,
2013-01-21 20:12:00,13.0,8.0,-100.00,ENE,65,0.0,1.0,79,0.00,,,-99.99,,2013-01-22 01:12:00,
2013-01-21 20:23:00,13.0,8.0,-100.00,North,0,1.0,2.0,79,0.00,,,-99.99,,2013-01-22 01:23:00,
2013-01-21 20:33:00,13.0,8.0,-100.00,East,85,1.0,3.0,81,0.01,,,-99.99,,2013-01-22 01:33:00,
2013-01-21 20:42:00,13.0,8.0,-100.00,East,85,1.0,2.0,82,0.00,,,-99.99,,2013-01-22 01:42:00,
2013-01-21 20:52:00,13.0,9.0,-100.00,North,0,0.0,2.0,83,0.01,,,-99.99,,2013-01-22 01:52:00,
2013-01-21 21:02:00,13.0,9.0,-100.00,NE,55,1.0,1.0,84,0.00,,,-99.99,,2013-01-22 02:02:00,
2013-01-21 21:12:00,13.0,9.0,-100.00,NNE,30,0.0,1.0,85,0.00,,,-99.99,,2013-01-22 02:12:00,
2013-01-21 21:22:00,12.0,9.0,-100.00,East,80,1.0,3.0,85,0.00,,,-99.99,,2013-01-22 02:22:00,
2013-01-21 21:32:00,12.0,9.0,-100.00,East,90,0.0,2.0,85,0.00,,,-99.99,,2013-01-22 02:32:00,
2013-01-21 21:43:00,12.0,8.0,-100.00,ENE,75,1.0,2.0,85,0.00,,,-99.99,,2013-01-22 02:43:00,
2013-01-21 21:53:00,12.0,8.0,-100.00,East,100,0.0,2.0,85,0.00,,,-99.99,,2013-01-22 02:53:00,
2013-01-21 22:03:00,12.0,8.0,-100.00,East,90,1.0,2.0,85,0.00,,,-99.99,,2013-01-22 03:03:00,
2013-01-21 22:12:00,12.0,8.0,-100.00,East,90,1.0,1.0,84,0.00,,,-99.99,,2013-01-22 03:12:00,
2013-01-21 22:22:00,11.0,8.0,-100.00,NE,45,1.0,6.0,84,0.00,,,-99.99,,2013-01-22 03:22:00,
2013-01-21 22:32:00,11.0,7.0,-100.00,East,80,1.0,3.0,84,0.00,,,-99.99,,2013-01-22 03:32:00,
2013-01-21 22:42:00,11.0,7.0,-100.00,ENE,75,0.0,2.0,84,0.00,,,-99.99,,2013-01-22 03:42:00,
2013-01-21 22:52:00,10.0,6.0,-100.00,SSW,195,0.0,1.0,84,0.00,,,-99.99,,2013-01-22 03:52:00,
2013-01-21 23:03:00,10.0,7.0,-100.00,North,355,0.0,2.0,85,0.00,,,-99.99,,2013-01-22 04:03:00,
2013-01-21 23:12:00,10.0,6.0,-100.00,East,100,0.0,1.0,85,0.00,,,-99.99,,2013-01-22 04:12:00,
2013-01-21 23:22:00,10.0,6.0,-100.00,West,270,0.0,1.0,84,0.00,,,-99.99,,2013-01-22 04:22:00,
2013-01-21 23:33:00,9.0,6.0,-100.00,SW,235,0.0,1.0,84,0.00,,,-99.99,,2013-01-22 04:33:00,
2013-01-21 23:42:00,8.0,5.0,-100.00,WNW,285,0.0,2.0,84,0.00,,,-99.99,,2013-01-22 04:42:00,
2013-01-21 23:52:00,8.0,5.0,-100.00,NNW,345,1.0,2.0,84,0.00,,,-99.99,,2013-01-22 04:52:00,